createdAt,value
2022-10-10T00:02:07.164Z,5.86
2022-10-10T00:04:35.457Z,6.06
2022-10-10T00:07:03.881Z,6.11
2022-10-10T00:09:32.145Z,5.91
2022-10-10T00:12:00.665Z,6.08
2022-10-10T00:14:32.508Z,6.21
2022-10-10T00:17:01.070Z,5.80
2022-10-10T00:19:29.272Z,5.72
2022-10-10T00:21:57.686Z,5.61
2022-10-10T00:24:25.922Z,5.13
2022-10-10T00:26:54.252Z,5.28
2022-10-10T00:29:22.516Z,5.88
2022-10-10T00:31:52.363Z,6.41
2022-10-10T00:34:20.740Z,6.46
2022-10-10T00:36:49.352Z,6.42
2022-10-10T00:39:17.560Z,6.08
2022-10-10T00:41:45.915Z,6.39
2022-10-10T00:44:15.830Z,6.38
2022-10-10T00:46:44.548Z,6.27
2022-10-10T00:49:19.684Z,6.40
2022-10-10T00:51:49.552Z,6.19
2022-10-10T00:54:19.588Z,6.40
2022-10-10T00:56:51.175Z,6.55
2022-10-10T00:59:20.393Z,6.56
2022-10-10T01:01:48.904Z,6.37
2022-10-10T01:04:33.334Z,6.89
2022-10-10T01:07:03.322Z,6.27
2022-10-10T01:09:32.109Z,6.12
2022-10-10T01:12:08.100Z,6.26
2022-10-10T01:14:40.580Z,6.42
2022-10-10T01:17:13.834Z,6.46
2022-10-10T01:19:59.612Z,6.85
2022-10-10T01:22:32.096Z,6.29
2022-10-10T01:25:06.757Z,6.38
2022-10-10T01:27:36.190Z,6.53
2022-10-10T01:30:09.298Z,6.63
2022-10-10T01:32:41.455Z,6.61
2022-10-10T01:35:19.925Z,6.61
2022-10-10T01:37:50.585Z,6.66
2022-10-10T01:40:24.784Z,6.67
2022-10-10T01:42:56.322Z,6.43
2022-10-10T01:45:25.910Z,6.94
2022-10-10T01:47:55.432Z,6.54
2022-10-10T01:50:26.051Z,6.68
2022-10-10T01:53:03.200Z,6.61
2022-10-10T01:55:44.068Z,6.52
2022-10-10T01:58:22.095Z,6.58
2022-10-10T02:00:55.890Z,6.45
2022-10-10T02:03:28.546Z,6.54
2022-10-10T02:06:00.040Z,6.65
2022-10-10T02:08:32.836Z,6.94
2022-10-10T02:11:02.832Z,6.90
2022-10-10T02:13:35.814Z,6.81
2022-10-10T02:16:07.386Z,6.84
2022-10-10T02:18:37.206Z,6.66
2022-10-10T02:21:07.808Z,6.60
2022-10-10T02:23:36.352Z,6.03
2022-10-10T02:26:04.987Z,6.29
2022-10-10T02:28:38.181Z,6.80
2022-10-10T02:31:12.438Z,6.86
2022-10-10T02:33:43.909Z,6.68
2022-10-10T02:36:12.272Z,6.35
2022-10-10T02:38:41.194Z,6.11
2022-10-10T02:41:10.954Z,6.67
2022-10-10T02:43:40.777Z,6.45
2022-10-10T02:46:14.055Z,6.49
2022-10-10T02:48:42.852Z,6.00
2022-10-10T02:51:11.322Z,6.17
2022-10-10T02:53:40.092Z,6.26
2022-10-10T02:56:08.405Z,6.29
2022-10-10T02:58:36.887Z,6.29
2022-10-10T03:01:05.261Z,6.39
2022-10-10T03:03:35.179Z,6.68
2022-10-10T03:06:03.543Z,6.16
2022-10-10T03:08:32.186Z,6.43
2022-10-10T03:11:01.495Z,6.56
2022-10-10T03:13:29.977Z,6.34
2022-10-10T03:15:58.318Z,6.38
2022-10-10T03:18:27.046Z,6.24
2022-10-10T03:20:57.854Z,6.81
2022-10-10T03:23:26.409Z,6.73
2022-10-10T03:25:54.788Z,6.45
2022-10-10T03:28:23.026Z,6.54
2022-10-10T03:30:51.458Z,6.32
2022-10-10T03:33:19.630Z,6.41
2022-10-10T03:35:48.136Z,6.35
2022-10-10T03:38:17.803Z,6.66
2022-10-10T03:40:46.686Z,6.38
2022-10-10T03:43:15.618Z,6.77
2022-10-10T03:45:44.894Z,6.70
2022-10-10T03:48:13.411Z,6.76
2022-10-10T03:50:41.851Z,6.68
2022-10-10T03:53:10.363Z,6.72
2022-10-10T03:55:41.894Z,6.93
2022-10-10T03:58:09.857Z,7.26
2022-10-10T04:00:38.221Z,6.57
2022-10-10T04:03:08.202Z,6.66
2022-10-10T04:05:37.310Z,6.66
2022-10-10T04:08:06.339Z,6.79
2022-10-10T04:10:34.832Z,6.50
2022-10-10T04:13:04.382Z,7.02
2022-10-10T04:15:32.909Z,6.54
2022-10-10T04:18:01.441Z,6.65
2022-10-10T04:20:29.834Z,6.40
2022-10-10T04:22:58.047Z,6.25
2022-10-10T04:25:26.670Z,6.44
2022-10-10T04:27:59.928Z,6.29
2022-10-10T04:30:33.787Z,6.40
2022-10-10T04:33:02.246Z,6.20
2022-10-10T04:35:31.027Z,6.21
2022-10-10T04:37:59.197Z,6.43
2022-10-10T04:40:27.673Z,6.28
2022-10-10T04:42:56.178Z,6.45
2022-10-10T04:45:26.730Z,6.22
2022-10-10T04:47:56.837Z,6.70
2022-10-10T04:50:25.530Z,6.45
2022-10-10T04:52:54.125Z,6.52
2022-10-10T04:55:22.571Z,6.78
2022-10-10T04:57:50.724Z,6.79
2022-10-10T05:00:19.213Z,6.84
2022-10-10T05:02:47.443Z,7.00
2022-10-10T05:05:17.520Z,7.14
2022-10-10T05:07:45.665Z,6.71
2022-10-10T05:10:14.023Z,6.72
2022-10-10T05:12:42.155Z,6.71
2022-10-10T05:15:11.348Z,7.00
2022-10-10T05:17:39.535Z,6.67
2022-10-10T05:20:08.465Z,6.82
2022-10-10T05:22:38.237Z,7.37
2022-10-10T05:25:07.534Z,7.13
2022-10-10T05:27:35.687Z,6.91
2022-10-10T05:30:04.084Z,7.22
2022-10-10T05:32:32.442Z,7.71
2022-10-10T05:35:00.935Z,8.09
2022-10-10T05:37:29.107Z,8.66
2022-10-10T05:39:58.864Z,9.33
2022-10-10T05:42:27.291Z,9.67
2022-10-10T05:44:55.924Z,9.73
2022-10-10T05:47:27.659Z,9.99
2022-10-10T05:49:56.625Z,10.44
2022-10-10T05:52:24.833Z,10.57
2022-10-10T05:54:53.931Z,11.05
2022-10-10T05:57:23.464Z,11.36
2022-10-10T05:59:51.763Z,11.08
2022-10-10T06:02:19.890Z,11.06
2022-10-10T06:04:48.349Z,11.44
2022-10-10T06:07:16.740Z,12.06
2022-10-10T06:09:45.357Z,12.20
2022-10-10T06:12:13.429Z,12.11
2022-10-10T06:14:43.331Z,12.32
2022-10-10T06:17:11.425Z,12.47
2022-10-10T06:19:39.765Z,12.76
2022-10-10T06:22:07.900Z,13.10
2022-10-10T06:24:36.272Z,13.49
2022-10-10T06:27:04.883Z,13.95
2022-10-10T06:29:33.230Z,13.85
2022-10-10T06:32:02.909Z,13.85
2022-10-10T06:34:31.318Z,13.76
2022-10-10T06:36:59.595Z,13.57
2022-10-10T06:39:27.875Z,13.85
2022-10-10T06:41:56.041Z,14.31
2022-10-10T06:44:24.410Z,14.90
2022-10-10T06:46:52.637Z,15.28
2022-10-10T06:49:22.426Z,15.83
2022-10-10T06:51:50.604Z,15.44
2022-10-10T06:54:18.927Z,15.13
2022-10-10T06:56:46.982Z,15.17
2022-10-10T06:59:15.423Z,15.74
2022-10-10T07:01:43.676Z,16.10
2022-10-10T07:04:13.345Z,16.72
2022-10-10T07:06:42.913Z,17.44
2022-10-10T07:09:11.245Z,17.16
2022-10-10T07:11:41.768Z,16.79
2022-10-10T07:14:10.069Z,16.73
2022-10-10T07:16:38.162Z,16.79
2022-10-10T07:19:06.477Z,16.98
2022-10-10T07:21:34.571Z,17.60
2022-10-10T07:24:04.383Z,18.30
2022-10-10T07:26:37.117Z,18.15
2022-10-10T07:29:06.142Z,18.19
2022-10-10T07:31:34.570Z,18.62
2022-10-10T07:34:02.979Z,19.26
2022-10-10T07:36:31.085Z,19.06
2022-10-10T07:38:59.604Z,18.92
2022-10-10T07:41:29.469Z,18.92
2022-10-10T07:43:57.984Z,18.55
2022-10-10T07:46:26.563Z,19.51
2022-10-10T07:48:55.031Z,20.62
2022-10-10T07:51:23.064Z,21.15
2022-10-10T07:53:52.957Z,21.29
2022-10-10T07:56:20.992Z,21.06
2022-10-10T07:58:50.651Z,22.34
2022-10-10T08:01:19.104Z,23.13
2022-10-10T08:03:48.682Z,23.81
2022-10-10T08:06:18.408Z,25.00
2022-10-10T08:08:51.678Z,25.29
2022-10-10T08:11:20.860Z,25.39
2022-10-10T08:13:50.874Z,25.19
2022-10-10T08:16:19.421Z,25.17
2022-10-10T08:18:47.999Z,25.02
2022-10-10T08:21:17.244Z,24.49
2022-10-10T08:23:45.778Z,23.94
2022-10-10T08:26:15.830Z,23.23
2022-10-10T08:28:44.572Z,23.55
2022-10-10T08:31:16.020Z,24.23
2022-10-10T08:33:46.068Z,23.99
2022-10-10T08:36:16.655Z,24.33
2022-10-10T08:38:45.246Z,24.73
2022-10-10T08:41:20.747Z,25.65
2022-10-10T08:43:51.849Z,25.91
2022-10-10T08:46:28.642Z,26.14
2022-10-10T08:48:58.239Z,25.07
2022-10-10T08:51:29.150Z,25.34
2022-10-10T08:53:59.543Z,25.73
2022-10-10T08:56:32.720Z,26.49
2022-10-10T08:59:04.987Z,27.03
2022-10-10T09:02:18.948Z,26.87
2022-10-10T09:04:30.463Z,26.60
2022-10-10T09:07:10.692Z,26.48
2022-10-10T09:09:45.678Z,26.12
2022-10-10T09:12:23.014Z,27.26
2022-10-10T09:14:59.757Z,26.86
2022-10-10T09:17:37.759Z,27.39
2022-10-10T09:20:23.347Z,26.78
2022-10-10T09:22:55.325Z,27.46
2022-10-10T09:25:25.338Z,28.25
2022-10-10T09:28:00.398Z,30.72
2022-10-10T09:30:29.018Z,31.27
2022-10-10T09:33:02.370Z,29.96
2022-10-10T09:35:32.615Z,29.24
2022-10-10T09:38:04.309Z,29.25
2022-10-10T09:40:36.099Z,28.76
2022-10-10T09:43:12.621Z,29.10
2022-10-10T09:45:46.095Z,28.50
2022-10-10T09:48:15.936Z,27.71
2022-10-10T09:50:44.082Z,28.34
2022-10-10T09:53:15.435Z,29.70
2022-10-10T09:55:44.539Z,29.86
2022-10-10T09:58:18.328Z,30.43
2022-10-10T10:00:46.900Z,29.68
2022-10-10T10:03:18.362Z,30.78
2022-10-10T10:05:48.555Z,31.74
2022-10-10T10:08:25.904Z,30.92
2022-10-10T10:10:57.992Z,29.73
2022-10-10T10:13:29.684Z,29.82
2022-10-10T10:16:08.602Z,30.76
2022-10-10T10:18:43.324Z,31.46
2022-10-10T10:21:18.279Z,31.73
2022-10-10T10:23:53.211Z,31.79
2022-10-10T10:26:24.507Z,31.90
2022-10-10T10:28:53.961Z,32.71
2022-10-10T10:31:45.599Z,33.19
2022-10-10T10:34:35.376Z,33.71
2022-10-10T10:37:14.699Z,33.46
2022-10-10T10:39:52.475Z,33.70
2022-10-10T10:42:31.750Z,34.31
2022-10-10T10:45:04.659Z,34.26
2022-10-10T10:47:42.369Z,34.70
2022-10-10T10:50:28.735Z,35.68
2022-10-10T10:53:01.676Z,36.26
2022-10-10T10:55:39.387Z,35.87
2022-10-10T11:01:24.194Z,33.76
2022-10-10T11:05:18.611Z,32.76
2022-10-10T11:07:17.864Z,32.24
2022-10-10T11:09:54.907Z,33.52
2022-10-10T11:12:34.586Z,33.95
2022-10-10T11:15:04.972Z,33.20
2022-10-10T11:17:37.834Z,33.44
2022-10-10T11:20:13.687Z,33.20
2022-10-10T11:22:47.506Z,34.26
2022-10-10T11:25:22.010Z,35.48
2022-10-10T11:27:54.393Z,35.39
2022-10-10T11:30:25.111Z,34.07
2022-10-10T11:32:56.910Z,34.23
2022-10-10T11:35:38.136Z,34.77
2022-10-10T11:38:15.499Z,33.60
2022-10-10T11:40:48.375Z,31.31
2022-10-10T11:43:24.148Z,28.36
2022-10-10T11:46:01.918Z,26.46
2022-10-10T11:48:38.910Z,26.19
2022-10-10T11:51:23.790Z,25.58
2022-10-10T11:53:57.878Z,24.65
2022-10-10T11:56:29.162Z,23.80
2022-10-10T11:59:01.892Z,23.43
2022-10-10T12:01:32.115Z,23.48
2022-10-10T12:04:00.505Z,22.62
2022-10-10T12:06:33.332Z,22.25
2022-10-10T12:09:07.159Z,22.33
2022-10-10T12:11:40.559Z,22.26
2022-10-10T12:14:10.214Z,22.04
2022-10-10T12:16:39.019Z,21.96
2022-10-10T12:19:08.996Z,21.87
2022-10-10T12:21:55.497Z,22.08
2022-10-10T12:24:25.724Z,21.63
2022-10-10T12:27:30.556Z,21.77
2022-10-10T12:30:21.546Z,21.60
2022-10-10T12:32:54.213Z,21.05
2022-10-10T12:35:43.187Z,21.29
2022-10-10T12:38:17.164Z,21.09
2022-10-10T12:41:09.203Z,20.94
2022-10-10T12:43:52.369Z,20.83
2022-10-10T12:46:29.304Z,20.89
2022-10-10T12:49:03.077Z,20.64
2022-10-10T12:51:33.762Z,20.50
2022-10-10T12:54:04.511Z,20.65
2022-10-10T12:56:37.239Z,20.72
2022-10-10T12:59:07.516Z,20.57
2022-10-10T13:01:39.715Z,20.62
2022-10-10T13:04:07.911Z,20.30
2022-10-10T13:06:39.394Z,20.54
2022-10-10T13:09:09.264Z,20.81
2022-10-10T13:11:57.226Z,20.47
2022-10-10T13:14:26.219Z,20.15
2022-10-10T13:16:54.849Z,20.04
2022-10-10T13:19:24.494Z,20.38
2022-10-10T13:21:54.360Z,20.46
2022-10-10T13:24:26.560Z,20.50
2022-10-10T13:26:56.795Z,20.19
2022-10-10T13:29:27.938Z,20.17
2022-10-10T13:31:59.906Z,20.41
2022-10-10T13:34:29.680Z,20.05
2022-10-10T13:37:00.628Z,19.86
2022-10-10T13:39:30.292Z,19.79
2022-10-10T13:42:00.381Z,19.52
2022-10-10T13:44:33.703Z,19.70
2022-10-10T13:47:35.511Z,19.48
2022-10-10T13:50:04.042Z,19.68
2022-10-10T13:52:32.385Z,18.83
2022-10-10T13:55:15.730Z,19.50
2022-10-10T13:57:45.504Z,19.24
2022-10-10T14:00:18.551Z,19.41
2022-10-10T14:02:46.974Z,19.22
2022-10-10T14:05:17.924Z,19.44
2022-10-10T14:07:49.568Z,19.46
2022-10-10T14:10:18.351Z,19.84
2022-10-10T14:12:52.583Z,19.19
2022-10-10T14:15:38.662Z,19.35
2022-10-10T14:18:16.856Z,19.04
2022-10-10T14:20:45.331Z,18.61
2022-10-10T14:23:13.903Z,18.88
2022-10-10T14:25:43.504Z,18.70
2022-10-10T14:28:17.900Z,18.87
2022-10-10T14:30:46.762Z,18.77
2022-10-10T14:33:16.611Z,18.92
2022-10-10T14:35:45.830Z,18.93
2022-10-10T14:38:14.802Z,18.81
2022-10-10T14:40:44.868Z,18.97
2022-10-10T14:43:13.367Z,18.80
2022-10-10T14:45:43.078Z,19.06
2022-10-10T14:48:12.056Z,18.74
2022-10-10T14:50:44.048Z,18.79
2022-10-10T14:53:12.431Z,18.31
2022-10-10T14:55:43.588Z,18.10
2022-10-10T14:58:15.598Z,18.29
2022-10-10T15:00:45.612Z,17.95
2022-10-10T15:03:14.080Z,17.95
2022-10-10T15:05:42.622Z,17.89
2022-10-10T15:08:13.724Z,18.10
2022-10-10T15:10:42.242Z,17.90
2022-10-10T15:13:10.983Z,17.88
2022-10-10T15:15:39.284Z,17.74
2022-10-10T15:18:25.698Z,17.92
2022-10-10T15:20:57.763Z,17.42
2022-10-10T15:23:27.347Z,17.36
2022-10-10T15:25:55.612Z,17.17
2022-10-10T15:28:23.924Z,16.93
2022-10-10T15:30:52.773Z,16.95
2022-10-10T15:33:22.503Z,17.17
2022-10-10T15:36:09.015Z,17.03
2022-10-10T15:38:38.196Z,16.92
2022-10-10T15:41:09.108Z,16.94
2022-10-10T15:43:44.680Z,17.03
2022-10-10T15:46:13.073Z,16.62
2022-10-10T15:48:42.515Z,16.83
2022-10-10T15:51:10.804Z,16.49
2022-10-10T15:53:39.211Z,16.11
2022-10-10T15:56:10.298Z,16.45
2022-10-10T15:58:38.867Z,16.87
2022-10-10T16:01:12.255Z,16.56
2022-10-10T16:03:42.338Z,16.34
2022-10-10T16:06:10.672Z,16.21
2022-10-10T16:08:39.215Z,16.14
2022-10-10T16:11:08.437Z,16.10
2022-10-10T16:13:37.583Z,15.97
2022-10-10T16:16:07.259Z,15.97
2022-10-10T16:18:40.212Z,16.15
2022-10-10T16:21:11.686Z,16.20
2022-10-10T16:23:40.606Z,16.00
2022-10-10T16:26:10.590Z,16.08
2022-10-10T16:28:38.666Z,15.82
2022-10-10T16:31:08.730Z,15.98
2022-10-10T16:33:38.828Z,15.96
2022-10-10T16:36:10.744Z,16.05
2022-10-10T16:38:39.021Z,15.63
2022-10-10T16:41:19.640Z,15.74
2022-10-10T16:43:57.477Z,15.50
2022-10-10T16:46:27.653Z,15.33
2022-10-10T16:48:58.452Z,15.45
2022-10-10T16:51:29.806Z,15.35
2022-10-10T16:54:01.205Z,15.48
2022-10-10T16:56:30.790Z,15.24
2022-10-10T16:58:59.822Z,15.20
2022-10-10T17:01:28.925Z,15.14
2022-10-10T17:04:00.434Z,15.31
2022-10-10T17:06:35.316Z,15.06
2022-10-10T17:09:05.639Z,14.79
2022-10-10T17:11:34.396Z,14.80
2022-10-10T17:14:02.585Z,14.87
2022-10-10T17:17:06.854Z,14.87
2022-10-10T17:19:19.582Z,14.73
2022-10-10T17:21:49.334Z,14.93
2022-10-10T17:24:17.831Z,14.52
2022-10-10T17:26:46.107Z,14.57
2022-10-10T17:29:14.754Z,14.50
2022-10-10T17:31:43.069Z,14.54
2022-10-10T17:34:11.199Z,14.43
2022-10-10T17:36:39.744Z,14.57
2022-10-10T17:39:09.489Z,14.96
2022-10-10T17:41:37.702Z,14.59
2022-10-10T17:44:10.606Z,14.59
2022-10-10T17:46:39.762Z,14.56
2022-10-10T17:49:12.598Z,14.86
2022-10-10T17:51:42.055Z,14.62
2022-10-10T17:54:13.549Z,14.73
2022-10-10T17:56:44.631Z,14.44
2022-10-10T17:59:13.180Z,14.42
2022-10-10T18:01:42.323Z,14.42
2022-10-10T18:04:10.489Z,14.33
2022-10-10T18:06:39.030Z,14.18
2022-10-10T18:09:07.477Z,14.21
2022-10-10T18:11:37.023Z,14.57
2022-10-10T18:14:05.344Z,14.20
2022-10-10T18:16:35.185Z,14.37
2022-10-10T18:19:04.969Z,14.36
2022-10-10T18:21:33.429Z,14.13
2022-10-10T18:24:01.858Z,14.16
2022-10-10T18:26:31.055Z,14.27
2022-10-10T18:29:00.919Z,14.45
2022-10-10T18:31:31.327Z,14.52
2022-10-10T18:33:59.806Z,14.30
2022-10-10T18:36:30.564Z,14.57
2022-10-10T18:38:59.700Z,14.47
2022-10-10T18:41:34.190Z,14.31
2022-10-10T18:44:05.501Z,14.59
2022-10-10T18:46:34.172Z,14.24
2022-10-10T18:49:02.394Z,14.01
2022-10-10T18:51:31.110Z,14.24
2022-10-10T18:54:03.524Z,14.53
2022-10-10T18:56:33.314Z,14.45
2022-10-10T18:59:04.942Z,14.32
2022-10-10T19:01:35.416Z,14.89
2022-10-10T19:04:03.989Z,14.16
2022-10-10T19:06:32.719Z,14.14
2022-10-10T19:09:01.909Z,14.31
2022-10-10T19:11:33.160Z,14.33
2022-10-10T19:14:06.025Z,14.33
2022-10-10T19:16:35.290Z,14.02
2022-10-10T19:19:04.085Z,14.17
2022-10-10T19:21:33.621Z,14.27
2022-10-10T19:24:02.875Z,14.16
2022-10-10T19:26:33.377Z,14.13
2022-10-10T19:29:06.396Z,14.09
2022-10-10T19:31:36.796Z,14.31
2022-10-10T19:34:05.741Z,14.23
2022-10-10T19:36:36.137Z,14.17
2022-10-10T19:39:07.186Z,14.38
2022-10-10T19:41:35.679Z,14.29
2022-10-10T19:44:05.547Z,14.36
2022-10-10T19:46:37.191Z,14.31
2022-10-10T19:49:07.439Z,14.52
2022-10-10T19:51:35.831Z,14.25
2022-10-10T19:54:04.027Z,14.25
2022-10-10T19:56:32.242Z,14.32
2022-10-10T19:59:04.306Z,14.56
2022-10-10T20:01:32.867Z,14.55
2022-10-10T20:04:01.469Z,14.36
2022-10-10T20:06:31.217Z,14.58
2022-10-10T20:09:00.004Z,14.36
2022-10-10T20:11:28.352Z,14.44
2022-10-10T20:13:57.493Z,14.44
2022-10-10T20:16:27.246Z,14.61
2022-10-10T20:18:57.272Z,14.47
2022-10-10T20:21:31.300Z,14.45
2022-10-10T20:24:02.917Z,14.60
2022-10-10T20:26:31.308Z,14.44
2022-10-10T20:29:00.322Z,14.37
2022-10-10T20:31:30.337Z,14.57
2022-10-10T20:34:00.841Z,14.58
2022-10-10T20:36:29.861Z,14.47
2022-10-10T20:39:00.680Z,14.62
2022-10-10T20:41:32.505Z,14.60
2022-10-10T20:44:03.242Z,14.42
2022-10-10T20:46:35.003Z,14.64
2022-10-10T20:49:05.047Z,14.39
2022-10-10T20:51:33.180Z,14.16
2022-10-10T20:54:02.746Z,14.36
2022-10-10T20:56:34.177Z,14.56
2022-10-10T20:59:02.293Z,14.24
2022-10-10T21:01:31.542Z,14.32
2022-10-10T21:04:00.486Z,14.22
2022-10-10T21:06:30.614Z,14.23
2022-10-10T21:09:00.829Z,14.22
2022-10-10T21:11:29.369Z,13.93
2022-10-10T21:14:00.060Z,14.14
2022-10-10T21:16:30.256Z,14.01
2022-10-10T21:18:58.892Z,13.86
2022-10-10T21:21:28.415Z,13.82
2022-10-10T21:23:57.116Z,13.69
2022-10-10T21:26:27.198Z,13.70
2022-10-10T21:28:55.925Z,13.55
2022-10-10T21:31:27.903Z,13.69
2022-10-10T21:33:56.879Z,13.38
2022-10-10T21:36:26.621Z,13.42
2022-10-10T21:38:54.756Z,13.22
2022-10-10T21:41:23.739Z,13.24
2022-10-10T21:43:54.873Z,13.43
2022-10-10T21:46:24.888Z,14.02
2022-10-10T21:48:55.548Z,13.35
2022-10-10T21:51:25.010Z,13.24
2022-10-10T21:53:53.205Z,13.08
2022-10-10T21:56:21.411Z,13.10
2022-10-10T21:58:49.642Z,13.18
2022-10-10T22:01:19.438Z,13.43
2022-10-10T22:03:49.889Z,13.56
2022-10-10T22:06:22.347Z,13.77
2022-10-10T22:08:51.981Z,13.51
2022-10-10T22:11:23.407Z,13.58
2022-10-10T22:13:52.328Z,13.46
2022-10-10T22:16:21.084Z,13.42
2022-10-10T22:18:49.383Z,13.33
2022-10-10T22:21:19.211Z,13.38
2022-10-10T22:23:47.399Z,13.52
2022-10-10T22:26:16.935Z,13.61
2022-10-10T22:28:46.412Z,13.62
2022-10-10T22:31:18.390Z,13.66
2022-10-10T22:33:46.929Z,13.58
2022-10-10T22:36:15.395Z,13.59
2022-10-10T22:38:46.519Z,13.89
2022-10-10T22:41:14.752Z,13.72
2022-10-10T22:43:42.989Z,13.67
2022-10-10T22:46:11.419Z,13.86
2022-10-10T22:48:39.636Z,13.71
2022-10-10T22:51:09.471Z,14.12
2022-10-10T22:53:37.852Z,13.87
2022-10-10T22:56:08.464Z,14.24
2022-10-10T22:58:36.887Z,13.88
2022-10-10T23:01:05.999Z,14.12
2022-10-10T23:03:34.333Z,13.97
2022-10-10T23:06:03.226Z,14.04
2022-10-10T23:08:31.575Z,13.91
2022-10-10T23:10:59.715Z,14.01
2022-10-10T23:13:29.591Z,14.38
2022-10-10T23:15:57.869Z,14.14
2022-10-10T23:18:26.137Z,14.17
2022-10-10T23:20:54.345Z,14.10
2022-10-10T23:23:22.651Z,14.06
2022-10-10T23:25:50.790Z,14.17
2022-10-10T23:28:19.557Z,14.16
2022-10-10T23:30:49.983Z,14.59
2022-10-10T23:33:18.538Z,14.36
2022-10-10T23:35:57.672Z,14.77
2022-10-10T23:38:26.041Z,14.35
2022-10-10T23:40:54.528Z,14.33
2022-10-10T23:43:23.327Z,14.37
2022-10-10T23:45:52.919Z,14.54
2022-10-10T23:48:21.186Z,14.35
2022-10-10T23:50:49.396Z,14.32
2022-10-10T23:53:17.451Z,14.32
2022-10-10T23:55:47.293Z,14.55
2022-10-10T23:58:15.654Z,14.27
